sensor_id;sensor_type;location;lat;lon;timestamp;P1;durP1;ratioP1;P2;durP2;ratioP2
82938;SDS011;72714;52.744;4.900;2023-10-13T00:01:19;7.27;;;2.50;;
82938;SDS011;72714;52.744;4.900;2023-10-13T00:03:45;9.87;;;2.70;;
82938;SDS011;72714;52.744;4.900;2023-10-13T00:06:10;8.87;;;2.87;;
82938;SDS011;72714;52.744;4.900;2023-10-13T00:08:36;9.13;;;3.07;;
82938;SDS011;72714;52.744;4.900;2023-10-13T00:11:02;8.37;;;2.53;;
82938;SDS011;72714;52.744;4.900;2023-10-13T00:13:28;6.93;;;2.80;;
82938;SDS011;72714;52.744;4.900;2023-10-13T00:15:55;10.20;;;2.95;;
82938;SDS011;72714;52.744;4.900;2023-10-13T00:18:25;9.00;;;3.30;;
82938;SDS011;72714;52.744;4.900;2023-10-13T00:20:58;8.40;;;3.10;;
82938;SDS011;72714;52.744;4.900;2023-10-13T00:23:24;7.25;;;3.20;;
82938;SDS011;72714;52.744;4.900;2023-10-13T00:25:52;9.30;;;3.85;;
82938;SDS011;72714;52.744;4.900;2023-10-13T00:28:27;8.13;;;3.33;;
82938;SDS011;72714;52.744;4.900;2023-10-13T00:31:00;8.63;;;3.85;;
82938;SDS011;72714;52.744;4.900;2023-10-13T00:33:36;9.30;;;4.67;;
82938;SDS011;72714;52.744;4.900;2023-10-13T00:36:03;10.85;;;4.97;;
82938;SDS011;72714;52.744;4.900;2023-10-13T00:38:30;11.80;;;5.83;;
82938;SDS011;72714;52.744;4.900;2023-10-13T00:40:55;12.80;;;6.40;;
82938;SDS011;72714;52.744;4.900;2023-10-13T00:43:28;13.68;;;6.55;;
82938;SDS011;72714;52.744;4.900;2023-10-13T00:45:55;10.30;;;5.93;;
82938;SDS011;72714;52.744;4.900;2023-10-13T00:48:24;12.48;;;6.53;;
82938;SDS011;72714;52.744;4.900;2023-10-13T00:50:58;13.93;;;6.80;;
82938;SDS011;72714;52.744;4.900;2023-10-13T00:53:28;12.10;;;6.78;;
82938;SDS011;72714;52.744;4.900;2023-10-13T00:55:55;12.98;;;7.15;;
82938;SDS011;72714;52.744;4.900;2023-10-13T00:58:21;11.65;;;6.50;;
82938;SDS011;72714;52.744;4.900;2023-10-13T01:00:49;16.67;;;7.43;;
82938;SDS011;72714;52.744;4.900;2023-10-13T01:03:21;11.38;;;7.63;;
82938;SDS011;72714;52.744;4.900;2023-10-13T01:05:51;15.32;;;7.88;;
82938;SDS011;72714;52.744;4.900;2023-10-13T01:08:30;12.35;;;7.82;;
82938;SDS011;72714;52.744;4.900;2023-10-13T01:10:59;12.65;;;7.28;;
82938;SDS011;72714;52.744;4.900;2023-10-13T01:13:25;13.35;;;8.13;;
82938;SDS011;72714;52.744;4.900;2023-10-13T01:15:52;10.30;;;7.53;;
82938;SDS011;72714;52.744;4.900;2023-10-13T01:18:18;11.68;;;7.72;;
82938;SDS011;72714;52.744;4.900;2023-10-13T01:20:43;12.43;;;8.03;;
82938;SDS011;72714;52.744;4.900;2023-10-13T01:23:11;12.98;;;8.68;;
82938;SDS011;72714;52.744;4.900;2023-10-13T01:25:44;14.88;;;7.90;;
82938;SDS011;72714;52.744;4.900;2023-10-13T01:28:10;10.98;;;7.55;;
82938;SDS011;72714;52.744;4.900;2023-10-13T01:30:41;13.35;;;8.15;;
82938;SDS011;72714;52.744;4.900;2023-10-13T01:33:15;12.20;;;8.32;;
82938;SDS011;72714;52.744;4.900;2023-10-13T01:35:41;14.85;;;8.13;;
82938;SDS011;72714;52.744;4.900;2023-10-13T01:38:15;14.85;;;8.70;;
82938;SDS011;72714;52.744;4.900;2023-10-13T01:40:41;15.25;;;9.20;;
82938;SDS011;72714;52.744;4.900;2023-10-13T01:43:08;15.18;;;8.68;;
82938;SDS011;72714;52.744;4.900;2023-10-13T01:45:36;14.93;;;9.30;;
82938;SDS011;72714;52.744;4.900;2023-10-13T01:48:11;16.88;;;9.27;;
82938;SDS011;72714;52.744;4.900;2023-10-13T01:50:40;14.65;;;9.18;;
82938;SDS011;72714;52.744;4.900;2023-10-13T01:53:07;13.52;;;9.00;;
82938;SDS011;72714;52.744;4.900;2023-10-13T01:55:42;15.30;;;9.20;;
82938;SDS011;72714;52.744;4.900;2023-10-13T01:58:09;11.65;;;8.18;;
82938;SDS011;72714;52.744;4.900;2023-10-13T02:00:44;14.38;;;9.20;;
82938;SDS011;72714;52.744;4.900;2023-10-13T02:03:12;13.65;;;8.98;;
82938;SDS011;72714;52.744;4.900;2023-10-13T02:05:42;15.30;;;9.27;;
82938;SDS011;72714;52.744;4.900;2023-10-13T02:08:14;14.20;;;9.13;;
82938;SDS011;72714;52.744;4.900;2023-10-13T02:10:50;12.65;;;8.23;;
82938;SDS011;72714;52.744;4.900;2023-10-13T02:13:17;12.45;;;8.40;;
82938;SDS011;72714;52.744;4.900;2023-10-13T02:15:44;12.32;;;8.40;;
82938;SDS011;72714;52.744;4.900;2023-10-13T02:18:12;11.82;;;8.13;;
82938;SDS011;72714;52.744;4.900;2023-10-13T02:20:39;13.43;;;8.85;;
82938;SDS011;72714;52.744;4.900;2023-10-13T02:23:10;11.00;;;8.40;;
82938;SDS011;72714;52.744;4.900;2023-10-13T02:25:36;11.97;;;8.47;;
82938;SDS011;72714;52.744;4.900;2023-10-13T02:28:08;13.43;;;8.82;;
82938;SDS011;72714;52.744;4.900;2023-10-13T02:30:46;14.48;;;8.57;;
82938;SDS011;72714;52.744;4.900;2023-10-13T02:33:14;15.00;;;8.77;;
82938;SDS011;72714;52.744;4.900;2023-10-13T02:35:40;10.65;;;7.72;;
82938;SDS011;72714;52.744;4.900;2023-10-13T02:38:16;10.68;;;7.35;;
82938;SDS011;72714;52.744;4.900;2023-10-13T02:40:51;13.43;;;8.10;;
82938;SDS011;72714;52.744;4.900;2023-10-13T02:43:16;12.57;;;8.13;;
82938;SDS011;72714;52.744;4.900;2023-10-13T02:45:42;11.37;;;6.80;;
82938;SDS011;72714;52.744;4.900;2023-10-13T02:48:22;11.75;;;5.90;;
82938;SDS011;72714;52.744;4.900;2023-10-13T02:50:54;13.33;;;5.23;;
82938;SDS011;72714;52.744;4.900;2023-10-13T02:53:21;10.73;;;5.25;;
82938;SDS011;72714;52.744;4.900;2023-10-13T02:55:53;12.67;;;4.50;;
82938;SDS011;72714;52.744;4.900;2023-10-13T02:58:21;9.15;;;3.63;;
82938;SDS011;72714;52.744;4.900;2023-10-13T03:00:46;9.67;;;3.60;;
82938;SDS011;72714;52.744;4.900;2023-10-13T03:03:12;8.63;;;3.67;;
82938;SDS011;72714;52.744;4.900;2023-10-13T03:05:41;8.43;;;3.10;;
82938;SDS011;72714;52.744;4.900;2023-10-13T03:08:07;13.32;;;3.50;;
82938;SDS011;72714;52.744;4.900;2023-10-13T03:10:35;8.88;;;3.00;;
82938;SDS011;72714;52.744;4.900;2023-10-13T03:13:05;9.93;;;2.80;;
82938;SDS011;72714;52.744;4.900;2023-10-13T03:15:33;8.63;;;2.88;;
82938;SDS011;72714;52.744;4.900;2023-10-13T03:18:01;10.73;;;2.67;;
82938;SDS011;72714;52.744;4.900;2023-10-13T03:20:27;9.70;;;2.72;;
82938;SDS011;72714;52.744;4.900;2023-10-13T03:22:57;10.25;;;2.90;;
82938;SDS011;72714;52.744;4.900;2023-10-13T03:25:23;11.98;;;3.40;;
82938;SDS011;72714;52.744;4.900;2023-10-13T03:27:54;10.68;;;3.30;;
82938;SDS011;72714;52.744;4.900;2023-10-13T03:30:22;8.50;;;3.28;;
82938;SDS011;72714;52.744;4.900;2023-10-13T03:32:55;10.77;;;4.00;;
82938;SDS011;72714;52.744;4.900;2023-10-13T03:35:21;16.37;;;5.10;;
82938;SDS011;72714;52.744;4.900;2023-10-13T03:37:53;12.20;;;5.00;;
82938;SDS011;72714;52.744;4.900;2023-10-13T03:40:22;13.07;;;5.00;;
82938;SDS011;72714;52.744;4.900;2023-10-13T03:42:48;12.33;;;5.20;;
82938;SDS011;72714;52.744;4.900;2023-10-13T03:45:24;13.45;;;5.90;;
82938;SDS011;72714;52.744;4.900;2023-10-13T03:47:50;12.60;;;5.38;;
82938;SDS011;72714;52.744;4.900;2023-10-13T03:50:17;10.93;;;4.90;;
82938;SDS011;72714;52.744;4.900;2023-10-13T03:52:54;11.33;;;5.13;;
82938;SDS011;72714;52.744;4.900;2023-10-13T03:55:26;10.63;;;5.53;;
82938;SDS011;72714;52.744;4.900;2023-10-13T03:57:53;11.63;;;5.50;;
82938;SDS011;72714;52.744;4.900;2023-10-13T04:00:22;12.93;;;6.57;;
82938;SDS011;72714;52.744;4.900;2023-10-13T04:02:52;12.45;;;8.60;;
82938;SDS011;72714;52.744;4.900;2023-10-13T04:05:29;13.50;;;8.50;;
82938;SDS011;72714;52.744;4.900;2023-10-13T04:08:07;14.27;;;11.20;;
82938;SDS011;72714;52.744;4.900;2023-10-13T04:11:02;15.00;;;12.13;;
82938;SDS011;72714;52.744;4.900;2023-10-13T04:13:46;19.88;;;13.95;;
82938;SDS011;72714;52.744;4.900;2023-10-13T04:16:34;17.02;;;13.63;;
82938;SDS011;72714;52.744;4.900;2023-10-13T04:19:01;17.25;;;13.15;;
82938;SDS011;72714;52.744;4.900;2023-10-13T04:21:27;16.95;;;13.18;;
82938;SDS011;72714;52.744;4.900;2023-10-13T04:24:07;16.02;;;12.40;;
82938;SDS011;72714;52.744;4.900;2023-10-13T04:26:42;15.90;;;12.73;;
82938;SDS011;72714;52.744;4.900;2023-10-13T04:29:28;16.30;;;13.30;;
82938;SDS011;72714;52.744;4.900;2023-10-13T04:32:14;15.77;;;12.10;;
82938;SDS011;72714;52.744;4.900;2023-10-13T04:34:44;14.25;;;11.23;;
82938;SDS011;72714;52.744;4.900;2023-10-13T04:37:16;13.88;;;11.15;;
82938;SDS011;72714;52.744;4.900;2023-10-13T04:39:54;13.57;;;11.48;;
82938;SDS011;72714;52.744;4.900;2023-10-13T04:42:34;13.87;;;11.17;;
82938;SDS011;72714;52.744;4.900;2023-10-13T04:45:18;14.05;;;11.45;;
82938;SDS011;72714;52.744;4.900;2023-10-13T04:47:57;12.95;;;10.27;;
82938;SDS011;72714;52.744;4.900;2023-10-13T04:50:45;14.13;;;10.32;;
82938;SDS011;72714;52.744;4.900;2023-10-13T04:53:18;12.70;;;10.20;;
82938;SDS011;72714;52.744;4.900;2023-10-13T04:55:58;11.95;;;10.23;;
82938;SDS011;72714;52.744;4.900;2023-10-13T04:58:42;13.68;;;10.40;;
82938;SDS011;72714;52.744;4.900;2023-10-13T05:01:26;11.82;;;9.85;;
82938;SDS011;72714;52.744;4.900;2023-10-13T05:03:51;11.63;;;9.65;;
82938;SDS011;72714;52.744;4.900;2023-10-13T05:06:20;11.50;;;9.00;;
82938;SDS011;72714;52.744;4.900;2023-10-13T05:09:04;11.45;;;9.43;;
82938;SDS011;72714;52.744;4.900;2023-10-13T05:11:48;11.53;;;9.10;;
82938;SDS011;72714;52.744;4.900;2023-10-13T05:14:32;11.95;;;9.45;;
82938;SDS011;72714;52.744;4.900;2023-10-13T05:17:16;10.60;;;8.20;;
82938;SDS011;72714;52.744;4.900;2023-10-13T05:20:00;9.30;;;7.32;;
82938;SDS011;72714;52.744;4.900;2023-10-13T05:22:44;8.52;;;6.93;;
82938;SDS011;72714;52.744;4.900;2023-10-13T05:25:28;8.10;;;5.50;;
82938;SDS011;72714;52.744;4.900;2023-10-13T05:28:13;8.82;;;5.20;;
82938;SDS011;72714;52.744;4.900;2023-10-13T05:31:00;9.35;;;4.80;;
82938;SDS011;72714;52.744;4.900;2023-10-13T05:33:44;11.38;;;5.00;;
82938;SDS011;72714;52.744;4.900;2023-10-13T05:36:28;10.17;;;4.90;;
82938;SDS011;72714;52.744;4.900;2023-10-13T05:39:12;12.40;;;4.70;;
82938;SDS011;72714;52.744;4.900;2023-10-13T05:41:56;13.00;;;4.40;;
82938;SDS011;72714;52.744;4.900;2023-10-13T05:44:40;14.20;;;4.38;;
82938;SDS011;72714;52.744;4.900;2023-10-13T05:47:33;17.27;;;5.10;;
82938;SDS011;72714;52.744;4.900;2023-10-13T05:50:07;15.75;;;4.97;;
82938;SDS011;72714;52.744;4.900;2023-10-13T05:52:39;14.27;;;4.63;;
82938;SDS011;72714;52.744;4.900;2023-10-13T05:55:26;18.52;;;5.30;;
82938;SDS011;72714;52.744;4.900;2023-10-13T05:58:11;19.05;;;5.22;;
82938;SDS011;72714;52.744;4.900;2023-10-13T06:00:55;22.80;;;5.82;;
82938;SDS011;72714;52.744;4.900;2023-10-13T06:03:39;22.98;;;6.15;;
82938;SDS011;72714;52.744;4.900;2023-10-13T06:06:24;23.87;;;6.40;;
82938;SDS011;72714;52.744;4.900;2023-10-13T06:09:07;23.48;;;6.20;;
82938;SDS011;72714;52.744;4.900;2023-10-13T06:11:52;25.73;;;6.63;;
82938;SDS011;72714;52.744;4.900;2023-10-13T06:14:36;27.27;;;7.45;;
82938;SDS011;72714;52.744;4.900;2023-10-13T06:17:20;27.48;;;6.97;;
82938;SDS011;72714;52.744;4.900;2023-10-13T06:20:04;22.85;;;6.40;;
82938;SDS011;72714;52.744;4.900;2023-10-13T06:22:49;24.40;;;6.97;;
82938;SDS011;72714;52.744;4.900;2023-10-13T06:25:33;27.20;;;7.05;;
82938;SDS011;72714;52.744;4.900;2023-10-13T06:28:17;32.13;;;7.35;;
82938;SDS011;72714;52.744;4.900;2023-10-13T06:31:02;31.83;;;7.60;;
82938;SDS011;72714;52.744;4.900;2023-10-13T06:33:34;28.05;;;7.38;;
82938;SDS011;72714;52.744;4.900;2023-10-13T06:36:03;31.00;;;8.18;;
82938;SDS011;72714;52.744;4.900;2023-10-13T06:38:34;26.90;;;8.23;;
82938;SDS011;72714;52.744;4.900;2023-10-13T06:41:06;33.28;;;7.40;;
82938;SDS011;72714;52.744;4.900;2023-10-13T06:43:32;31.08;;;7.55;;
82938;SDS011;72714;52.744;4.900;2023-10-13T06:46:11;28.45;;;7.38;;
82938;SDS011;72714;52.744;4.900;2023-10-13T06:48:48;24.85;;;6.70;;
82938;SDS011;72714;52.744;4.900;2023-10-13T06:51:19;29.02;;;7.13;;
82938;SDS011;72714;52.744;4.900;2023-10-13T06:53:47;27.60;;;7.93;;
82938;SDS011;72714;52.744;4.900;2023-10-13T06:56:14;27.00;;;6.70;;
82938;SDS011;72714;52.744;4.900;2023-10-13T06:58:53;28.75;;;7.18;;
82938;SDS011;72714;52.744;4.900;2023-10-13T07:01:25;30.83;;;7.22;;
82938;SDS011;72714;52.744;4.900;2023-10-13T07:03:53;22.98;;;6.85;;
82938;SDS011;72714;52.744;4.900;2023-10-13T07:06:19;24.20;;;6.70;;
82938;SDS011;72714;52.744;4.900;2023-10-13T07:08:48;28.17;;;6.70;;
82938;SDS011;72714;52.744;4.900;2023-10-13T07:11:27;25.75;;;7.15;;
82938;SDS011;72714;52.744;4.900;2023-10-13T07:14:02;27.33;;;7.00;;
82938;SDS011;72714;52.744;4.900;2023-10-13T07:16:57;26.03;;;7.13;;
82938;SDS011;72714;52.744;4.900;2023-10-13T07:19:28;21.40;;;6.38;;
82938;SDS011;72714;52.744;4.900;2023-10-13T07:21:57;17.40;;;5.95;;
82938;SDS011;72714;52.744;4.900;2023-10-13T07:24:42;20.17;;;6.07;;
82938;SDS011;72714;52.744;4.900;2023-10-13T07:27:07;19.63;;;6.00;;
82938;SDS011;72714;52.744;4.900;2023-10-13T07:29:33;16.75;;;5.35;;
82938;SDS011;72714;52.744;4.900;2023-10-13T07:32:01;14.68;;;5.40;;
82938;SDS011;72714;52.744;4.900;2023-10-13T07:34:28;16.52;;;5.20;;
82938;SDS011;72714;52.744;4.900;2023-10-13T07:36:57;17.23;;;5.70;;
82938;SDS011;72714;52.744;4.900;2023-10-13T07:39:27;13.30;;;5.38;;
82938;SDS011;72714;52.744;4.900;2023-10-13T07:41:54;15.93;;;5.40;;
82938;SDS011;72714;52.744;4.900;2023-10-13T07:44:23;14.80;;;5.68;;
82938;SDS011;72714;52.744;4.900;2023-10-13T07:46:57;16.73;;;6.43;;
82938;SDS011;72714;52.744;4.900;2023-10-13T07:49:31;17.48;;;6.55;;
82938;SDS011;72714;52.744;4.900;2023-10-13T07:52:01;16.75;;;6.82;;
82938;SDS011;72714;52.744;4.900;2023-10-13T07:54:50;17.38;;;6.57;;
82938;SDS011;72714;52.744;4.900;2023-10-13T07:57:28;14.20;;;7.20;;
82938;SDS011;72714;52.744;4.900;2023-10-13T07:59:57;14.60;;;7.20;;
82938;SDS011;72714;52.744;4.900;2023-10-13T08:03:01;16.00;;;7.65;;
82938;SDS011;72714;52.744;4.900;2023-10-13T08:05:41;18.90;;;8.17;;
82938;SDS011;72714;52.744;4.900;2023-10-13T08:08:35;15.60;;;7.60;;
82938;SDS011;72714;52.744;4.900;2023-10-13T08:11:06;15.45;;;7.85;;
82938;SDS011;72714;52.744;4.900;2023-10-13T08:13:48;14.45;;;7.70;;
82938;SDS011;72714;52.744;4.900;2023-10-13T08:16:22;14.10;;;7.77;;
82938;SDS011;72714;52.744;4.900;2023-10-13T08:18:49;17.35;;;8.70;;
82938;SDS011;72714;52.744;4.900;2023-10-13T08:21:18;16.35;;;8.38;;
82938;SDS011;72714;52.744;4.900;2023-10-13T08:23:50;16.50;;;8.90;;
82938;SDS011;72714;52.744;4.900;2023-10-13T08:26:19;20.15;;;8.98;;
82938;SDS011;72714;52.744;4.900;2023-10-13T08:29:04;15.80;;;8.15;;
82938;SDS011;72714;52.744;4.900;2023-10-13T08:31:48;15.07;;;8.18;;
82938;SDS011;72714;52.744;4.900;2023-10-13T08:34:29;17.23;;;8.33;;
82938;SDS011;72714;52.744;4.900;2023-10-13T08:37:04;17.45;;;7.88;;
82938;SDS011;72714;52.744;4.900;2023-10-13T08:39:48;18.67;;;7.60;;
82938;SDS011;72714;52.744;4.900;2023-10-13T08:42:43;17.00;;;7.10;;
82938;SDS011;72714;52.744;4.900;2023-10-13T08:45:13;15.43;;;7.28;;
82938;SDS011;72714;52.744;4.900;2023-10-13T08:47:49;15.75;;;6.97;;
82938;SDS011;72714;52.744;4.900;2023-10-13T08:50:34;16.90;;;7.20;;
82938;SDS011;72714;52.744;4.900;2023-10-13T08:53:27;15.18;;;6.90;;
82938;SDS011;72714;52.744;4.900;2023-10-13T08:56:06;16.97;;;7.10;;
82938;SDS011;72714;52.744;4.900;2023-10-13T08:58:39;19.58;;;9.23;;
82938;SDS011;72714;52.744;4.900;2023-10-13T09:01:24;16.45;;;6.63;;
82938;SDS011;72714;52.744;4.900;2023-10-13T09:04:06;14.10;;;5.78;;
82938;SDS011;72714;52.744;4.900;2023-10-13T09:09:32;17.13;;;6.40;;
82938;SDS011;72714;52.744;4.900;2023-10-13T09:14:42;17.67;;;6.20;;
82938;SDS011;72714;52.744;4.900;2023-10-13T09:17:09;12.43;;;5.43;;
82938;SDS011;72714;52.744;4.900;2023-10-13T09:19:48;17.33;;;5.70;;
82938;SDS011;72714;52.744;4.900;2023-10-13T09:22:27;15.05;;;5.32;;
82938;SDS011;72714;52.744;4.900;2023-10-13T09:25:01;19.37;;;5.93;;
82938;SDS011;72714;52.744;4.900;2023-10-13T09:27:29;15.35;;;5.53;;
82938;SDS011;72714;52.744;4.900;2023-10-13T09:30:01;17.52;;;5.93;;
82938;SDS011;72714;52.744;4.900;2023-10-13T09:32:47;17.33;;;5.22;;
82938;SDS011;72714;52.744;4.900;2023-10-13T09:35:26;20.20;;;5.72;;
82938;SDS011;72714;52.744;4.900;2023-10-13T09:37:52;17.75;;;5.70;;
82938;SDS011;72714;52.744;4.900;2023-10-13T09:40:21;20.05;;;6.25;;
82938;SDS011;72714;52.744;4.900;2023-10-13T09:43:00;16.40;;;5.40;;
82938;SDS011;72714;52.744;4.900;2023-10-13T09:45:34;33.42;;;20.67;;
82938;SDS011;72714;52.744;4.900;2023-10-13T09:48:11;17.30;;;5.72;;
82938;SDS011;72714;52.744;4.900;2023-10-13T09:50:48;16.50;;;5.68;;
82938;SDS011;72714;52.744;4.900;2023-10-13T09:53:17;20.02;;;5.75;;
82938;SDS011;72714;52.744;4.900;2023-10-13T09:56:26;21.95;;;6.00;;
82938;SDS011;72714;52.744;4.900;2023-10-13T09:58:51;21.23;;;6.03;;
82938;SDS011;72714;52.744;4.900;2023-10-13T10:01:29;17.45;;;5.80;;
82938;SDS011;72714;52.744;4.900;2023-10-13T10:04:08;21.67;;;6.55;;
82938;SDS011;72714;52.744;4.900;2023-10-13T10:06:57;22.93;;;6.57;;
82938;SDS011;72714;52.744;4.900;2023-10-13T10:09:32;21.30;;;6.10;;
82938;SDS011;72714;52.744;4.900;2023-10-13T10:17:24;20.65;;;5.95;;
82938;SDS011;72714;52.744;4.900;2023-10-13T10:19:55;22.17;;;5.80;;
82938;SDS011;72714;52.744;4.900;2023-10-13T10:22:40;19.60;;;5.63;;
82938;SDS011;72714;52.744;4.900;2023-10-13T10:25:09;22.75;;;5.68;;
82938;SDS011;72714;52.744;4.900;2023-10-13T10:28:09;19.52;;;5.90;;
82938;SDS011;72714;52.744;4.900;2023-10-13T10:30:36;19.50;;;5.68;;
82938;SDS011;72714;52.744;4.900;2023-10-13T10:33:04;17.90;;;5.50;;
82938;SDS011;72714;52.744;4.900;2023-10-13T10:35:59;19.37;;;5.43;;
82938;SDS011;72714;52.744;4.900;2023-10-13T10:38:25;22.30;;;5.55;;
82938;SDS011;72714;52.744;4.900;2023-10-13T10:43:29;18.88;;;5.43;;
82938;SDS011;72714;52.744;4.900;2023-10-13T10:46:13;24.60;;;6.30;;
82938;SDS011;72714;52.744;4.900;2023-10-13T10:48:43;19.40;;;5.95;;
82938;SDS011;72714;52.744;4.900;2023-10-13T10:51:10;19.77;;;5.80;;
82938;SDS011;72714;52.744;4.900;2023-10-13T10:53:45;17.98;;;6.13;;
82938;SDS011;72714;52.744;4.900;2023-10-13T10:56:12;18.52;;;5.63;;
82938;SDS011;72714;52.744;4.900;2023-10-13T10:58:53;18.73;;;6.32;;
82938;SDS011;72714;52.744;4.900;2023-10-13T11:01:22;20.05;;;6.63;;
82938;SDS011;72714;52.744;4.900;2023-10-13T11:03:58;18.50;;;6.05;;
82938;SDS011;72714;52.744;4.900;2023-10-13T11:06:44;18.58;;;6.00;;
82938;SDS011;72714;52.744;4.900;2023-10-13T11:09:11;22.40;;;5.53;;
82938;SDS011;72714;52.744;4.900;2023-10-13T11:11:52;16.10;;;5.72;;
82938;SDS011;72714;52.744;4.900;2023-10-13T11:14:19;16.25;;;5.75;;
82938;SDS011;72714;52.744;4.900;2023-10-13T11:16:49;18.80;;;6.63;;
82938;SDS011;72714;52.744;4.900;2023-10-13T11:19:16;16.33;;;5.90;;
82938;SDS011;72714;52.744;4.900;2023-10-13T11:21:45;16.25;;;5.60;;
82938;SDS011;72714;52.744;4.900;2023-10-13T11:24:13;18.40;;;5.90;;
82938;SDS011;72714;52.744;4.900;2023-10-13T11:26:38;17.85;;;5.78;;
82938;SDS011;72714;52.744;4.900;2023-10-13T11:29:17;15.57;;;5.60;;
82938;SDS011;72714;52.744;4.900;2023-10-13T11:31:45;18.75;;;5.85;;
82938;SDS011;72714;52.744;4.900;2023-10-13T11:34:11;19.75;;;6.18;;
82938;SDS011;72714;52.744;4.900;2023-10-13T11:36:42;18.50;;;6.20;;
82938;SDS011;72714;52.744;4.900;2023-10-13T11:39:07;19.17;;;5.97;;
82938;SDS011;72714;52.744;4.900;2023-10-13T11:41:33;19.98;;;6.10;;
82938;SDS011;72714;52.744;4.900;2023-10-13T11:44:00;23.05;;;6.70;;
82938;SDS011;72714;52.744;4.900;2023-10-13T11:46:38;19.48;;;6.25;;
82938;SDS011;72714;52.744;4.900;2023-10-13T11:49:12;22.07;;;6.43;;
82938;SDS011;72714;52.744;4.900;2023-10-13T11:51:38;21.77;;;6.53;;
82938;SDS011;72714;52.744;4.900;2023-10-13T11:56:43;19.42;;;6.20;;
82938;SDS011;72714;52.744;4.900;2023-10-13T11:59:09;24.42;;;6.80;;
82938;SDS011;72714;52.744;4.900;2023-10-13T12:01:46;24.07;;;7.50;;
82938;SDS011;72714;52.744;4.900;2023-10-13T12:04:30;22.83;;;7.47;;
82938;SDS011;72714;52.744;4.900;2023-10-13T12:06:59;22.10;;;6.70;;
82938;SDS011;72714;52.744;4.900;2023-10-13T12:09:40;24.83;;;7.37;;
82938;SDS011;72714;52.744;4.900;2023-10-13T12:12:25;20.77;;;7.25;;
82938;SDS011;72714;52.744;4.900;2023-10-13T12:14:52;30.63;;;7.43;;
82938;SDS011;72714;52.744;4.900;2023-10-13T12:17:20;22.75;;;7.22;;
82938;SDS011;72714;52.744;4.900;2023-10-13T12:19:53;30.65;;;8.07;;
82938;SDS011;72714;52.744;4.900;2023-10-13T12:22:20;26.90;;;7.70;;
82938;SDS011;72714;52.744;4.900;2023-10-13T12:25:01;24.63;;;8.10;;
82938;SDS011;72714;52.744;4.900;2023-10-13T12:27:30;29.25;;;8.38;;
82938;SDS011;72714;52.744;4.900;2023-10-13T12:30:13;26.08;;;8.45;;
82938;SDS011;72714;52.744;4.900;2023-10-13T12:32:42;25.45;;;7.60;;
82938;SDS011;72714;52.744;4.900;2023-10-13T12:35:19;28.43;;;8.70;;
82938;SDS011;72714;52.744;4.900;2023-10-13T12:38:00;30.48;;;9.10;;
82938;SDS011;72714;52.744;4.900;2023-10-13T12:40:51;27.27;;;8.50;;
82938;SDS011;72714;52.744;4.900;2023-10-13T12:43:49;34.47;;;9.18;;
82938;SDS011;72714;52.744;4.900;2023-10-13T12:46:33;31.50;;;9.02;;
82938;SDS011;72714;52.744;4.900;2023-10-13T12:49:17;34.92;;;9.57;;
82938;SDS011;72714;52.744;4.900;2023-10-13T12:52:03;33.28;;;9.25;;
82938;SDS011;72714;52.744;4.900;2023-10-13T12:54:28;38.10;;;9.30;;
82938;SDS011;72714;52.744;4.900;2023-10-13T12:57:00;33.63;;;9.57;;
82938;SDS011;72714;52.744;4.900;2023-10-13T12:59:28;39.30;;;10.33;;
82938;SDS011;72714;52.744;4.900;2023-10-13T13:01:53;32.60;;;9.87;;
82938;SDS011;72714;52.744;4.900;2023-10-13T13:04:19;34.67;;;9.57;;
82938;SDS011;72714;52.744;4.900;2023-10-13T13:06:50;32.17;;;9.38;;
82938;SDS011;72714;52.744;4.900;2023-10-13T13:09:16;88.40;;;52.00;;
82938;SDS011;72714;52.744;4.900;2023-10-13T13:11:51;38.58;;;11.02;;
82938;SDS011;72714;52.744;4.900;2023-10-13T13:14:22;34.58;;;10.23;;
82938;SDS011;72714;52.744;4.900;2023-10-13T13:16:59;35.88;;;9.65;;
82938;SDS011;72714;52.744;4.900;2023-10-13T13:19:34;36.03;;;10.48;;
82938;SDS011;72714;52.744;4.900;2023-10-13T13:22:06;34.67;;;9.18;;
82938;SDS011;72714;52.744;4.900;2023-10-13T13:24:43;35.65;;;9.77;;
82938;SDS011;72714;52.744;4.900;2023-10-13T13:27:16;32.80;;;9.05;;
82938;SDS011;72714;52.744;4.900;2023-10-13T13:29:47;35.70;;;10.30;;
82938;SDS011;72714;52.744;4.900;2023-10-13T13:32:13;32.55;;;9.25;;
82938;SDS011;72714;52.744;4.900;2023-10-13T13:34:49;32.38;;;9.50;;
82938;SDS011;72714;52.744;4.900;2023-10-13T13:37:28;31.25;;;9.45;;
82938;SDS011;72714;52.744;4.900;2023-10-13T13:39:54;32.58;;;9.10;;
82938;SDS011;72714;52.744;4.900;2023-10-13T13:42:20;32.63;;;9.60;;
82938;SDS011;72714;52.744;4.900;2023-10-13T13:44:45;36.17;;;10.43;;
82938;SDS011;72714;52.744;4.900;2023-10-13T13:47:14;29.48;;;9.35;;
82938;SDS011;72714;52.744;4.900;2023-10-13T13:49:39;34.45;;;9.88;;
82938;SDS011;72714;52.744;4.900;2023-10-13T13:52:09;33.33;;;9.40;;
82938;SDS011;72714;52.744;4.900;2023-10-13T13:54:35;33.85;;;9.45;;
82938;SDS011;72714;52.744;4.900;2023-10-13T13:57:00;39.27;;;10.23;;
82938;SDS011;72714;52.744;4.900;2023-10-13T13:59:26;35.17;;;9.90;;
82938;SDS011;72714;52.744;4.900;2023-10-13T14:01:51;38.80;;;10.35;;
82938;SDS011;72714;52.744;4.900;2023-10-13T14:04:18;37.78;;;9.48;;
82938;SDS011;72714;52.744;4.900;2023-10-13T14:06:44;34.80;;;9.77;;
82938;SDS011;72714;52.744;4.900;2023-10-13T14:09:10;41.33;;;10.30;;
82938;SDS011;72714;52.744;4.900;2023-10-13T14:11:56;40.25;;;10.07;;
82938;SDS011;72714;52.744;4.900;2023-10-13T14:14:54;38.13;;;9.70;;
82938;SDS011;72714;52.744;4.900;2023-10-13T14:17:23;38.17;;;9.93;;
82938;SDS011;72714;52.744;4.900;2023-10-13T14:19:57;39.78;;;10.00;;
82938;SDS011;72714;52.744;4.900;2023-10-13T14:22:23;37.67;;;10.55;;
82938;SDS011;72714;52.744;4.900;2023-10-13T14:24:52;36.00;;;9.80;;
82938;SDS011;72714;52.744;4.900;2023-10-13T14:27:21;34.17;;;9.65;;
82938;SDS011;72714;52.744;4.900;2023-10-13T14:29:49;36.30;;;10.02;;
82938;SDS011;72714;52.744;4.900;2023-10-13T14:32:18;38.08;;;10.77;;
82938;SDS011;72714;52.744;4.900;2023-10-13T14:34:45;39.10;;;9.97;;
82938;SDS011;72714;52.744;4.900;2023-10-13T14:37:13;34.78;;;9.35;;
82938;SDS011;72714;52.744;4.900;2023-10-13T14:39:39;38.95;;;9.88;;
82938;SDS011;72714;52.744;4.900;2023-10-13T14:42:05;36.78;;;9.88;;
82938;SDS011;72714;52.744;4.900;2023-10-13T14:44:33;35.37;;;9.67;;
82938;SDS011;72714;52.744;4.900;2023-10-13T14:47:02;38.20;;;9.70;;
82938;SDS011;72714;52.744;4.900;2023-10-13T14:49:33;36.60;;;9.68;;
82938;SDS011;72714;52.744;4.900;2023-10-13T14:52:00;45.83;;;10.40;;
82938;SDS011;72714;52.744;4.900;2023-10-13T14:54:26;47.93;;;11.20;;
82938;SDS011;72714;52.744;4.900;2023-10-13T14:57:03;38.45;;;9.88;;
82938;SDS011;72714;52.744;4.900;2023-10-13T14:59:29;44.15;;;10.50;;
82938;SDS011;72714;52.744;4.900;2023-10-13T15:01:58;40.10;;;10.40;;
82938;SDS011;72714;52.744;4.900;2023-10-13T15:04:27;44.58;;;11.27;;
82938;SDS011;72714;52.744;4.900;2023-10-13T15:06:54;43.08;;;10.63;;
82938;SDS011;72714;52.744;4.900;2023-10-13T15:09:20;45.17;;;10.73;;
82938;SDS011;72714;52.744;4.900;2023-10-13T15:11:49;39.97;;;9.83;;
82938;SDS011;72714;52.744;4.900;2023-10-13T15:14:18;37.97;;;10.53;;
82938;SDS011;72714;52.744;4.900;2023-10-13T15:16:45;43.05;;;10.75;;
82938;SDS011;72714;52.744;4.900;2023-10-13T15:19:11;39.72;;;10.35;;
82938;SDS011;72714;52.744;4.900;2023-10-13T15:21:37;38.17;;;9.65;;
82938;SDS011;72714;52.744;4.900;2023-10-13T15:24:05;44.97;;;10.13;;
82938;SDS011;72714;52.744;4.900;2023-10-13T15:26:47;47.25;;;10.68;;